Latest Weather Observations for Kingaroy

IDQ60801

Issued at 5:05 pm EST Tuesday 2 September 2014 (issued every 30 minutes, with the page automatically refreshed every 10 minutes)

About weather observations | Map of weather stations | Latest weather observations for QLD | Other Formats
Station Details ID: 040922 Name: KINGAROY AIRPORT Lat: -26.57 Lon: 151.84 Height: 433.67 m
Data from the previous 72 hours. | See also: Recent months at Kingaroy
Date/Time
EST
Temp
°C
App
Temp
°C
Dew
Point
Rel
Hum
%
Delta-T
°C
Wind Press
QNH
hPa
Press
MSL
hPa
Rain
since 9 am
mm
Dir
 
Spd
km/h
Gust
km/h
Spd
kts
Gust
kts
02/05:00pm 20.9 14.3 2.2 29 8.9 WSW 26 39 14 21 1011.7 1010.6 0.0
02/04:30pm 21.9 14.5 2.1 27 9.5 WSW 30 48 16 26 1011.1 1010.1 0.0
02/04:23pm 22.0 14.6 1.6 26 9.7 WSW 30 48 16 26 1011.1 1010.1 0.0
02/04:00pm 22.7 14.5 0.5 23 10.4 WSW 33 48 18 26 1010.8 1009.7 0.0
02/03:40pm 23.3 15.0 -0.2 21 10.9 W 33 56 18 30 1010.4 1009.3 0.0
02/03:30pm 23.6 14.9 -0.6 20 11.1 WSW 35 52 19 28 1010.3 1009.2 0.0
02/03:03pm 24.9 17.0 1.1 21 11.4 W 32 50 17 27 1009.9 1008.8 0.0
02/03:00pm 24.7 16.2 0.9 21 11.4 W 35 52 19 28 1009.8 1008.7 0.0
02/02:31pm 25.4 16.9 0.8 20 11.8 W 35 54 19 29 1009.8 1008.7 0.0
02/02:30pm 25.4 17.3 0.8 20 11.8 W 33 50 18 27 1009.9 1008.8 0.0
02/02:00pm 25.7 18.5 3.0 23 11.4 WNW 30 48 16 26 1010.2 1009.1 0.0
02/01:32pm 25.9 17.6 1.9 21 11.8 NW 35 54 19 29 1010.6 1009.5 0.0
02/01:30pm 25.5 17.2 2.2 22 11.4 NW 35 46 19 25 1010.7 1009.6 0.0
02/01:29pm 25.3 16.5 1.4 21 11.6 NW 37 46 20 25 1010.6 1009.5 0.0
02/01:00pm 25.9 19.0 6.5 29 10.3 WNW 32 46 17 25 1011.2 1010.2 0.0
02/12:30pm 24.1 17.7 6.8 33 9.2 NW 30 44 16 24 1012.0 1010.9 0.0
02/12:19pm 24.0 17.7 7.6 35 8.8 WNW 30 48 16 26 1012.4 1011.3 0.0
02/12:00pm 23.7 17.1 6.0 32 9.2 NW 30 44 16 24 1012.7 1011.6 0.0
02/11:30am 22.7 16.8 7.3 37 8.2 NW 28 41 15 22 1013.5 1012.5 0.0
02/11:00am 21.4 14.7 7.3 40 7.4 NNW 32 46 17 25 1013.6 1012.6 0.0
02/10:30am 21.0 15.6 8.0 43 6.9 NNW 26 37 14 20 1014.4 1013.3 0.0
02/10:00am 19.1 12.4 7.5 47 6.0 NNW 32 41 17 22 1014.9 1013.8 0.0
02/09:30am 19.5 13.5 8.5 49 5.8 NNW 30 35 16 19 1015.2 1014.2 0.0
02/09:00am 19.2 14.5 9.1 52 5.4 NNW 24 32 13 17 1015.5 1014.5 0.0
02/08:30am 15.9 11.9 8.4 61 3.9 NNW 19 24 10 13 1016.1 1015.1 0.0
02/08:00am 13.1 11.3 8.0 71 2.6 NW 7 11 4 6 1016.4 1015.3 0.0
02/07:30am 11.2 10.8 8.2 82 1.5 CALM 0 0 0 0 1016.5 1015.4 0.0
02/07:00am 8.4 7.5 6.2 86 1.0 CALM 0 0 0 0 1016.4 1015.3 0.0
02/06:30am 8.4 7.5 6.0 85 1.1 CALM 0 0 0 0 1016.1 1015.1 0.0
02/06:00am 8.2 7.3 6.0 86 1.0 CALM 0 0 0 0 1016.1 1015.1 0.0
02/05:30am 8.0 5.9 6.5 90 0.7 SSW 7 9 4 5 1016.1 1015.1 0.0
02/05:00am 7.5 6.4 5.1 85 1.1 CALM 0 2 0 1 1015.7 1014.7 0.0
02/04:30am 7.5 6.0 5.0 84 1.1 E 2 6 1 3 1015.6 1014.6 0.0
02/04:00am 7.2 6.0 4.7 84 1.1 CALM 0 0 0 0 1015.7 1014.7 0.0
02/03:30am 7.1 5.8 4.2 82 1.3 CALM 0 9 0 5 1015.9 1014.9 0.0
02/03:00am 7.1 5.7 3.7 79 1.5 ESE 0 0 0 0 1016.0 1015.0 0.0
02/02:30am 8.4 6.2 5.3 81 1.4 S 6 7 3 4 1016.1 1015.1 0.0
02/02:00am 8.9 7.8 4.9 76 1.8 CALM 0 0 0 0 1016.5 1015.4 0.0
02/01:30am 10.1 8.8 4.0 66 2.8 CALM 0 0 0 0 1016.7 1015.6 0.0
02/01:00am 11.6 9.5 5.7 67 2.8 W 6 7 3 4 1016.9 1015.8 0.0
02/12:30am 12.8 10.8 6.2 64 3.2 W 6 9 3 5 1017.2 1016.2 0.0
02/12:00am 13.1 10.8 5.8 61 3.5 W 7 9 4 5 1017.1 1016.1 0.0
 
Date/Time
EST
Temp
°C
App
Temp
°C
Dew
Point
Rel
Hum
%
Delta-T
°C
Wind Press
QNH
hPa
Press
MSL
hPa
Rain
since 9 am
mm
Dir
 
Spd
km/h
Gust
km/h
Spd
kts
Gust
kts
01/11:30pm 12.9 10.7 5.3 60 3.6 N 6 7 3 4 1017.3 1016.3 0.0
01/11:00pm 13.5 12.5 5.4 58 3.9 CALM 0 4 0 2 1017.7 1016.7 0.0
01/10:30pm 12.9 10.9 4.3 56 4.0 WNW 4 7 2 4 1017.6 1016.6 0.0
01/10:00pm 13.4 11.3 4.0 53 4.4 W 4 7 2 4 1017.5 1016.5 0.0
01/09:30pm 12.3 10.6 3.8 56 3.9 S 2 6 1 3 1017.5 1016.5 0.0
01/09:00pm 10.3 8.9 3.3 62 3.1 CALM 0 0 0 0 1017.7 1016.7 0.0
01/08:30pm 12.4 10.7 1.7 48 4.7 WSW 0 0 0 0 1017.3 1016.3 0.0
01/08:00pm 14.4 12.7 2.0 43 5.6 CALM 0 0 0 0 1017.2 1016.2 0.0
01/07:30pm 14.9 13.4 2.8 44 5.6 CALM 0 0 0 0 1017.2 1016.2 0.0
01/07:00pm 15.1 13.5 2.6 43 5.7 CALM 0 0 0 0 1017.1 1016.1 0.0
01/06:30pm 17.3 13.9 2.1 36 7.0 NNE 9 11 5 6 1017.0 1015.9 0.0
01/06:00pm 19.2 15.8 1.7 31 8.1 N 9 11 5 6 1016.5 1015.4 0.0
01/05:30pm 19.7 15.8 1.2 29 8.5 N 11 13 6 7 1016.5 1015.4 0.0
01/05:00pm 22.4 18.1 0.9 24 10.1 NW 13 19 7 10 1016.2 1015.2 0.0
01/04:30pm 23.0 17.4 0.2 22 10.6 NNW 19 26 10 14 1016.0 1015.0 0.0
01/04:00pm 23.5 18.0 0.6 22 10.8 N 19 26 10 14 1015.8 1014.8 0.0
01/03:30pm 23.6 18.5 0.7 22 10.8 NNW 17 26 9 14 1015.8 1014.8 0.0
01/03:00pm 23.5 19.0 -0.1 21 10.9 NNW 13 22 7 12 1016.1 1015.1 0.0
01/02:30pm 24.0 21.2 2.2 24 10.6 W 6 11 3 6 1016.2 1015.2 0.0
01/02:00pm 23.7 18.7 1.4 23 10.6 W 17 24 9 13 1016.6 1015.5 0.0
01/01:30pm 23.0 17.1 -0.5 21 10.8 NNW 20 30 11 16 1017.2 1016.2 0.0
01/01:00pm 23.8 18.3 2.0 24 10.5 WNW 20 41 11 22 1017.7 1016.7 0.0
01/12:30pm 22.5 17.0 0.9 24 10.1 NNW 19 28 10 15 1018.4 1017.4 0.0
01/12:00pm 22.2 17.3 1.8 26 9.7 N 17 30 9 16 1018.6 1017.6 0.0
01/11:30am 21.9 16.8 3.1 29 9.2 N 19 28 10 15 1019.2 1018.2 0.0
01/11:00am 21.3 17.6 4.4 33 8.4 NNW 13 19 7 10 1019.3 1018.3 0.0
01/10:30am 20.7 16.4 5.1 36 7.8 NNW 17 24 9 13 1019.9 1018.9 0.0
01/10:00am 19.6 15.5 6.3 42 6.8 NNW 17 24 9 13 1020.5 1019.5 0.0
01/09:30am 18.5 14.4 6.4 45 6.1 NW 17 24 9 13 1020.9 1020.7 0.0
01/09:00am 14.2 13.4 11.0 81 1.7 NW 6 9 3 5 1021.3 1021.0 -
01/08:00am 11.4 11.4 9.8 90 0.8 CALM 0 0 0 0 1020.7 1020.5 0.0
01/07:30am 9.1 8.7 8.3 95 0.4 CALM 0 0 0 0 1020.4 1020.1 0.0
01/07:00am 6.0 5.0 5.6 97 0.2 CALM 0 0 0 0 1020.1 1019.8 0.0
01/06:30am 5.0 3.8 4.4 96 0.3 CALM 0 0 0 0 1019.6 1019.3 0.0
01/06:00am 4.4 3.0 3.5 94 0.4 CALM 0 0 0 0 1019.4 1019.1 0.0
01/05:30am 4.6 3.2 3.4 92 0.5 CALM 0 0 0 0 1019.2 1018.9 0.0
01/05:00am 5.3 4.0 4.3 93 0.4 CALM 0 0 0 0 1018.9 1018.6 0.0
01/04:30am 6.0 3.8 5.1 94 0.4 S 6 7 3 4 1018.9 1018.6 0.0
01/04:00am 6.2 4.8 5.3 94 0.4 S 2 7 1 4 1019.0 1018.7 0.0
01/03:30am 7.0 6.1 6.1 94 0.4 CALM 0 0 0 0 1018.9 1018.6 0.0
01/03:00am 7.0 5.3 5.8 92 0.6 S 4 9 2 5 1019.0 1018.7 0.0
01/02:30am 8.1 6.6 6.9 92 0.6 SSE 4 7 2 4 1019.2 1018.9 0.0
01/02:00am 9.0 7.2 8.1 94 0.4 S 7 9 4 5 1019.4 1019.1 0.0
01/01:30am 8.8 6.5 7.4 91 0.7 S 9 13 5 7 1019.4 1019.1 0.0
01/01:00am 11.3 10.1 9.6 89 0.9 E 6 11 3 6 1019.4 1019.1 0.0
01/12:30am 10.8 8.9 9.2 90 0.8 S 9 11 5 6 1019.5 1019.2 0.0
01/12:00am 12.3 12.4 10.2 87 1.1 CALM 0 0 0 0 1019.4 1019.1 0.0
 
Date/Time
EST
Temp
°C
App
Temp
°C
Dew
Point
Rel
Hum
%
Delta-T
°C
Wind Press
QNH
hPa
Press
MSL
hPa
Rain
since 9 am
mm
Dir
 
Spd
km/h
Gust
km/h
Spd
kts
Gust
kts
31/11:30pm 12.4 11.6 9.8 84 1.4 ENE 4 9 2 5 1019.5 1019.2 0.0
31/11:00pm 13.3 12.2 10.1 81 1.7 E 6 7 3 4 1019.5 1019.2 0.0
31/10:30pm 13.6 13.2 9.8 78 2.0 ENE 2 7 1 4 1019.6 1019.3 0.0
31/10:00pm 14.3 13.2 9.9 75 2.3 E 6 9 3 5 1019.5 1019.2 0.0
31/09:30pm 14.7 14.0 10.1 74 2.5 NNE 4 7 2 4 1019.4 1019.1 0.0
31/09:00pm 15.5 15.6 10.1 70 2.9 CALM 0 6 0 3 1019.3 1019.0 0.0
31/08:30pm 15.9 14.8 9.8 67 3.3 NNE 6 9 3 5 1019.1 1018.8 0.0
31/08:00pm 16.5 14.9 8.7 60 4.1 NNW 7 9 4 5 1018.6 1018.3 0.0
31/07:30pm 16.6 14.6 7.3 54 4.7 SSE 7 9 4 5 1018.3 1018.0 0.0
31/07:00pm 17.7 15.9 7.2 50 5.4 E 6 11 3 6 1017.7 1017.4 0.0
31/06:30pm 17.7 16.0 7.7 52 5.2 ENE 6 11 3 6 1017.4 1017.1 0.0
31/06:00pm 19.1 16.5 6.2 43 6.5 ESE 9 11 5 6 1017.0 1016.7 0.0
31/05:30pm 20.7 18.2 4.7 35 8.0 E 7 11 4 6 1016.7 1016.3 0.0
31/05:00pm 21.9 19.6 4.9 33 8.6 SSW 6 7 3 4 1016.6 1016.2 0.0
31/04:30pm 22.1 20.0 3.7 30 9.1 SW 4 9 2 5 1016.2 1015.9 0.0
31/04:00pm 22.2 19.6 4.3 31 8.9 NW 7 9 4 5 1016.1 1015.8 0.0
31/03:30pm 23.5 20.1 4.0 28 9.8 WSW 11 19 6 10 1016.0 1015.7 0.0
31/03:00pm 22.8 20.0 3.4 28 9.6 SW 7 15 4 8 1016.0 1015.7 0.0
31/02:30pm 23.7 21.1 4.1 28 9.9 E 7 17 4 9 1016.0 1015.7 0.0
31/02:00pm 23.1 19.5 3.1 27 9.8 NNW 11 19 6 10 1016.2 1015.9 0.0
31/01:30pm 22.6 19.9 3.7 29 9.4 SW 7 15 4 8 1016.7 1016.3 0.0
31/01:00pm 22.7 19.6 3.8 29 9.4 NW 9 17 5 9 1017.0 1016.7 0.0
31/12:30pm 22.1 19.2 4.6 32 8.8 WNW 9 15 5 8 1017.5 1017.2 0.0
31/12:00pm 22.0 18.4 3.2 29 9.2 SSW 11 20 6 11 1018.1 1017.8 0.0
31/11:30am 21.7 19.1 4.3 32 8.7 S 7 11 4 6 1018.5 1018.2 0.0
31/11:00am 21.2 17.8 3.9 32 8.5 NNW 11 20 6 11 1019.0 1018.7 0.0
31/10:30am 20.3 17.1 5.1 37 7.6 NNW 11 17 6 9 1019.5 1019.2 0.0
31/10:00am 19.7 17.9 7.8 46 6.2 SW 7 11 4 6 1019.8 1019.5 0.0
31/09:30am 18.5 17.5 8.7 53 5.2 ESE 4 7 2 4 1020.0 1019.7 0.0
31/09:00am 16.3 15.5 8.0 58 4.3 SE 2 7 1 4 1020.1 1019.8 0.0
31/08:30am 13.6 13.4 8.9 73 2.4 CALM 0 0 0 0 1020.3 1020.0 0.0
31/08:00am 10.8 10.3 7.7 81 1.5 CALM 0 0 0 0 1020.3 1020.0 0.0
31/07:30am 7.9 7.1 6.7 92 0.6 CALM 0 0 0 0 1020.1 1019.8 0.0
31/07:00am 5.7 4.6 5.3 97 0.2 CALM 0 0 0 0 1019.8 1019.5 0.0
31/06:30am 4.0 2.5 3.1 94 0.4 CALM 0 0 0 0 1019.5 1019.2 0.0
31/06:00am 4.0 2.5 3.1 94 0.4 CALM 0 0 0 0 1019.3 1019.0 0.0
31/05:30am 4.4 3.0 3.7 95 0.3 CALM 0 0 0 0 1019.2 1018.9 0.0
31/05:00am 4.6 3.2 3.7 94 0.4 CALM 0 0 0 0 1018.9 1018.6 0.0
31/04:30am 5.0 3.7 4.1 94 0.4 CALM 0 0 0 0 1018.9 1018.6 0.0
31/04:00am 5.1 3.8 3.9 92 0.5 CALM 0 0 0 0 1018.9 1018.6 0.0
31/03:30am 5.7 4.5 4.7 93 0.4 CALM 0 0 0 0 1018.8 1018.5 0.0
31/03:00am 5.8 4.6 4.4 91 0.6 CALM 0 0 0 0 1018.8 1018.5 0.0
31/02:30am 6.2 5.0 4.4 88 0.8 CALM 0 0 0 0 1019.0 1018.7 0.0
31/02:00am 6.8 5.6 4.6 86 1.0 CALM 0 0 0 0 1019.2 1018.9 0.0
31/01:30am 7.6 6.5 5.2 85 1.1 CALM 0 0 0 0 1019.4 1019.1 0.0
31/01:00am 9.0 7.1 6.6 85 1.1 E 6 7 3 4 1019.5 1019.2 0.0
31/12:30am 8.2 6.2 6.2 87 0.9 SSW 6 9 3 5 1019.6 1019.3 0.0
31/12:00am 9.0 8.0 5.7 80 1.5 CALM 0 6 0 3 1019.8 1019.5 0.0
 
Date/Time
EST
Temp
°C
App
Temp
°C
Dew
Point
Rel
Hum
%
Delta-T
°C
Wind Press
QNH
hPa
Press
MSL
hPa
Rain
since 9 am
mm
Dir
 
Spd
km/h
Gust
km/h
Spd
kts
Gust
kts
30/11:30pm 11.0 9.2 7.1 77 1.9 E 6 7 3 4 1019.9 1019.6 0.0
30/11:00pm 10.9 8.6 5.9 71 2.4 ENE 7 11 4 6 1019.8 1019.5 0.0
30/10:30pm 10.4 9.1 6.2 75 2.0 NE 2 6 1 3 1019.8 1019.5 0.0
30/10:00pm 10.6 9.8 6.6 76 1.9 CALM 0 0 0 0 1019.6 1019.3 0.0
30/09:30pm 11.5 10.8 6.8 73 2.3 CALM 0 0 0 0 1019.5 1019.2 0.0
30/09:00pm 11.4 10.8 7.3 76 2.0 CALM 0 0 0 0 1019.5 1019.2 0.0
30/08:30pm 11.3 10.5 6.4 72 2.4 CALM 0 0 0 0 1019.5 1019.2 0.0
30/08:00pm 12.0 11.2 6.3 68 2.8 CALM 0 0 0 0 1019.3 1019.0 0.0
30/07:30pm 11.9 10.8 5.1 63 3.2 CALM 0 6 0 3 1019.0 1018.7 0.0
30/07:00pm 12.3 9.8 4.0 57 3.8 ESE 6 7 3 4 1018.6 1018.3 0.0
30/06:30pm 14.7 12.3 4.4 50 4.9 SE 6 7 3 4 1018.2 1017.9 0.0
30/06:00pm 16.1 13.7 4.2 45 5.7 SSW 6 9 3 5 1018.0 1017.7 0.0
30/05:30pm 17.6 14.2 3.9 40 6.6 SSW 11 19 6 10 1017.9 1017.6 0.0

Other Formats:

Comma delimited format used in spreadsheet applications
http://www.bom.gov.au/fwo/IDQ60801/IDQ60801.94549.axf

JavaScript Object Notation format (JSON) in row-major order
http://www.bom.gov.au/fwo/IDQ60801/IDQ60801.94549.json